createdAt,value
2023-06-21T00:00:09.062Z,242.76
2023-06-21T00:01:09.160Z,241.85
2023-06-21T00:02:09.208Z,244.15
2023-06-21T00:03:09.354Z,246.24
2023-06-21T00:04:09.367Z,243.96
2023-06-21T00:05:09.374Z,245.41
2023-06-21T00:06:09.431Z,249.08
2023-06-21T00:07:09.500Z,247.71
2023-06-21T00:08:09.564Z,248.78
2023-06-21T00:09:09.656Z,247.45
2023-06-21T00:10:09.693Z,246.55
2023-06-21T00:11:09.745Z,248.79
2023-06-21T00:12:09.813Z,246.40
2023-06-21T00:13:09.866Z,248.42
2023-06-21T00:14:09.929Z,247.64
2023-06-21T00:15:09.976Z,245.88
2023-06-21T00:16:10.043Z,246.06
2023-06-21T00:17:10.113Z,247.58
2023-06-21T00:18:10.232Z,247.50
2023-06-21T00:19:10.241Z,248.98
2023-06-21T00:20:10.362Z,245.94
2023-06-21T00:21:10.384Z,248.89
2023-06-21T00:22:10.469Z,247.36
2023-06-21T00:23:10.493Z,245.04
2023-06-21T00:24:10.629Z,247.91
2023-06-21T00:25:10.632Z,249.47
2023-06-21T00:26:10.689Z,249.13
2023-06-21T00:27:10.736Z,246.56
2023-06-21T00:28:10.862Z,250.00
2023-06-21T00:29:10.846Z,245.98
2023-06-21T00:30:10.907Z,247.41
2023-06-21T00:31:11.022Z,249.29
2023-06-21T00:32:11.055Z,248.58
2023-06-21T00:33:11.120Z,246.53
2023-06-21T00:34:11.132Z,246.72
2023-06-21T00:35:11.169Z,249.75
2023-06-21T00:36:11.230Z,248.61
2023-06-21T00:37:11.288Z,249.79
2023-06-21T00:38:11.310Z,241.35
2023-06-21T00:39:11.346Z,247.93
2023-06-21T00:40:11.546Z,250.00
2023-06-21T00:41:11.474Z,248.23
2023-06-21T00:42:11.533Z,249.17
2023-06-21T00:43:11.570Z,249.03
2023-06-21T00:44:11.637Z,248.12
2023-06-21T00:45:11.694Z,244.09
2023-06-21T00:46:11.758Z,249.16
2023-06-21T00:47:11.787Z,246.97
2023-06-21T00:48:11.835Z,247.22
2023-06-21T00:49:11.880Z,245.40
2023-06-21T00:50:11.937Z,245.05
2023-06-21T00:51:11.963Z,249.46
2023-06-21T00:52:12.018Z,249.83
2023-06-21T00:53:12.090Z,248.26
2023-06-21T00:54:12.132Z,247.54
2023-06-21T00:55:12.176Z,249.23
2023-06-21T00:56:12.221Z,247.27
2023-06-21T00:57:12.284Z,246.08
2023-06-21T00:58:12.363Z,245.92
2023-06-21T00:59:12.366Z,245.10
2023-06-21T01:00:12.430Z,246.10
2023-06-21T01:01:12.459Z,249.37
2023-06-21T01:02:12.618Z,250.00
2023-06-21T01:03:12.649Z,249.80
2023-06-21T01:04:12.667Z,249.14
2023-06-21T01:05:12.732Z,245.75
2023-06-21T01:06:12.776Z,246.55
2023-06-21T01:07:12.801Z,249.26
2023-06-21T01:08:12.856Z,247.51
2023-06-21T01:09:12.882Z,247.28
2023-06-21T01:10:12.911Z,249.54
2023-06-21T01:11:12.951Z,247.28
2023-06-21T01:12:13.017Z,248.61
2023-06-21T01:13:13.002Z,245.40
2023-06-21T01:14:13.097Z,246.17
2023-06-21T01:15:13.091Z,244.35
2023-06-21T01:16:13.151Z,244.83
2023-06-21T01:17:13.172Z,244.21
2023-06-21T01:18:13.224Z,246.75
2023-06-21T01:19:13.275Z,242.82
2023-06-21T01:20:13.267Z,237.60
2023-06-21T01:21:13.315Z,239.86
2023-06-21T01:22:13.365Z,240.47
2023-06-21T01:23:13.385Z,235.96
2023-06-21T01:24:13.436Z,238.09
2023-06-21T01:25:13.483Z,237.44
2023-06-21T01:26:13.503Z,235.90
2023-06-21T01:27:13.561Z,238.95
2023-06-21T01:28:13.593Z,237.38
2023-06-21T01:29:13.607Z,233.24
2023-06-21T01:30:13.615Z,230.93
2023-06-21T01:31:13.687Z,230.78
2023-06-21T01:32:13.652Z,230.73
2023-06-21T01:33:13.690Z,229.66
2023-06-21T01:34:13.767Z,228.56
2023-06-21T01:35:13.788Z,233.69
2023-06-21T01:36:13.780Z,237.00
2023-06-21T01:37:13.813Z,234.96
2023-06-21T01:38:13.843Z,235.08
2023-06-21T01:39:13.850Z,227.78
2023-06-21T01:40:13.883Z,227.60
2023-06-21T01:41:13.898Z,228.83
2023-06-21T01:42:13.939Z,226.10
2023-06-21T01:43:13.957Z,225.86
2023-06-21T01:44:13.994Z,220.99
2023-06-21T01:45:13.993Z,221.14
2023-06-21T01:46:14.108Z,221.16
2023-06-21T01:47:14.028Z,223.91
2023-06-21T01:48:14.071Z,227.90
2023-06-21T01:49:14.116Z,228.90
2023-06-21T01:50:14.105Z,227.32
2023-06-21T01:51:14.112Z,230.74
2023-06-21T01:52:14.183Z,231.18
2023-06-21T01:53:14.153Z,231.36
2023-06-21T01:54:14.177Z,229.92
2023-06-21T01:55:14.173Z,227.55
2023-06-21T01:56:14.151Z,225.09
2023-06-21T01:57:14.171Z,219.41
2023-06-21T01:58:14.163Z,225.17
2023-06-21T01:59:14.227Z,224.59
2023-06-21T02:00:14.178Z,228.06
2023-06-21T02:01:14.192Z,224.18
2023-06-21T02:02:14.196Z,226.15
2023-06-21T02:03:14.205Z,230.09
2023-06-21T02:04:14.236Z,228.94
2023-06-21T02:05:14.274Z,230.03
2023-06-21T02:06:14.244Z,224.97
2023-06-21T02:07:14.256Z,225.68
2023-06-21T02:08:14.224Z,223.88
2023-06-21T02:09:14.226Z,226.68
2023-06-21T02:10:14.232Z,227.79
2023-06-21T02:11:14.228Z,225.67
2023-06-21T02:12:14.317Z,227.69
2023-06-21T02:13:14.224Z,221.78
2023-06-21T02:14:14.244Z,214.84
2023-06-21T02:15:14.240Z,210.80
2023-06-21T02:16:14.282Z,213.58
2023-06-21T02:17:14.249Z,212.19
2023-06-21T02:18:14.247Z,212.06
2023-06-21T02:19:14.214Z,206.94
2023-06-21T02:20:14.298Z,203.21
2023-06-21T02:21:14.211Z,200.20
2023-06-21T02:22:14.219Z,198.77
2023-06-21T02:23:14.214Z,199.49
2023-06-21T02:24:14.191Z,198.77
2023-06-21T02:25:14.188Z,196.96
2023-06-21T02:26:14.196Z,200.07
2023-06-21T02:27:14.188Z,202.35
2023-06-21T02:28:14.220Z,203.44
2023-06-21T02:29:14.177Z,202.68
2023-06-21T02:30:14.169Z,197.59
2023-06-21T02:31:14.197Z,198.23
2023-06-21T02:32:14.187Z,198.96
2023-06-21T02:33:14.201Z,196.70
2023-06-21T02:34:14.235Z,194.83
2023-06-21T02:35:14.189Z,194.31
2023-06-21T02:36:14.145Z,197.00
2023-06-21T02:37:14.180Z,194.38
2023-06-21T02:38:14.239Z,193.14
2023-06-21T02:39:14.153Z,191.32
2023-06-21T02:40:14.153Z,193.83
2023-06-21T02:41:14.173Z,192.42
2023-06-21T02:42:14.167Z,193.16
2023-06-21T02:43:14.151Z,194.61
2023-06-21T02:44:14.141Z,194.81
2023-06-21T02:45:14.157Z,195.16
2023-06-21T02:46:14.155Z,193.67
2023-06-21T02:47:14.158Z,193.73
2023-06-21T02:48:14.177Z,196.25
2023-06-21T02:49:14.209Z,197.82
2023-06-21T02:50:14.148Z,196.90
2023-06-21T02:51:14.140Z,195.47
2023-06-21T02:52:14.212Z,194.03
2023-06-21T02:53:14.171Z,194.51
2023-06-21T02:54:14.155Z,196.05
2023-06-21T02:55:14.170Z,197.44
2023-06-21T02:56:14.194Z,196.00
2023-06-21T02:57:14.215Z,195.28
2023-06-21T02:58:14.181Z,196.14
2023-06-21T02:59:14.172Z,197.56
2023-06-21T03:00:14.218Z,198.48
2023-06-21T03:01:14.287Z,198.66
2023-06-21T03:02:14.218Z,200.71
2023-06-21T03:03:14.228Z,202.19
2023-06-21T03:04:14.192Z,201.04
2023-06-21T03:05:14.211Z,201.72
2023-06-21T03:06:14.231Z,202.81
2023-06-21T03:07:14.226Z,204.38
2023-06-21T03:08:14.245Z,202.64
2023-06-21T03:09:14.187Z,203.18
2023-06-21T03:10:14.231Z,202.94
2023-06-21T03:11:14.222Z,204.81
2023-06-21T03:12:14.243Z,201.83
2023-06-21T03:13:14.212Z,202.32
2023-06-21T03:14:14.196Z,204.19
2023-06-21T03:15:14.251Z,204.41
2023-06-21T03:16:14.236Z,204.27
2023-06-21T03:17:14.260Z,201.88
2023-06-21T03:18:14.204Z,201.01
2023-06-21T03:19:14.245Z,200.93
2023-06-21T03:20:14.223Z,200.89
2023-06-21T03:21:14.237Z,201.69
2023-06-21T03:22:16.626Z,200.29
2023-06-21T03:23:14.396Z,202.89
2023-06-21T03:24:14.447Z,202.88
2023-06-21T03:25:14.376Z,203.62
2023-06-21T03:26:14.395Z,202.54
2023-06-21T03:27:14.385Z,199.97
2023-06-21T03:28:14.372Z,201.35
2023-06-21T03:29:14.383Z,203.87
2023-06-21T03:30:14.450Z,205.23
2023-06-21T03:31:14.415Z,204.52
2023-06-21T03:32:14.379Z,205.79
2023-06-21T03:33:14.389Z,204.95
2023-06-21T03:34:14.419Z,204.99
2023-06-21T03:35:14.369Z,204.61
2023-06-21T03:36:14.373Z,205.83
2023-06-21T03:37:14.423Z,206.97
2023-06-21T03:38:14.398Z,209.84
2023-06-21T03:39:14.402Z,210.00
2023-06-21T03:40:14.412Z,209.54
2023-06-21T03:41:14.425Z,211.16
2023-06-21T03:42:14.461Z,211.11
2023-06-21T03:43:14.480Z,212.15
2023-06-21T03:44:14.449Z,213.61
2023-06-21T03:45:14.513Z,212.04
2023-06-21T03:46:14.520Z,212.20
2023-06-21T03:47:14.506Z,215.34
2023-06-21T03:48:14.477Z,216.78
2023-06-21T03:49:14.557Z,215.09
2023-06-21T03:50:14.549Z,216.17
2023-06-21T03:51:14.500Z,215.71
2023-06-21T03:52:14.540Z,212.92
2023-06-21T03:53:14.578Z,211.12
2023-06-21T03:54:14.595Z,210.65
2023-06-21T03:55:14.582Z,211.09
2023-06-21T03:56:14.594Z,208.03
2023-06-21T03:57:14.612Z,209.71
2023-06-21T03:58:14.659Z,211.00
2023-06-21T03:59:14.628Z,211.74
2023-06-21T04:00:14.636Z,210.18
2023-06-21T04:01:14.659Z,209.42
2023-06-21T04:02:14.725Z,209.09
2023-06-21T04:03:14.715Z,209.44
2023-06-21T04:04:14.732Z,210.90
2023-06-21T04:05:14.720Z,209.03
2023-06-21T04:06:14.690Z,208.09
2023-06-21T04:07:14.761Z,208.96
2023-06-21T04:08:14.732Z,207.02
2023-06-21T04:09:14.704Z,209.02
2023-06-21T04:10:14.781Z,206.57
2023-06-21T04:11:14.758Z,208.97
2023-06-21T04:12:14.830Z,208.67
2023-06-21T04:13:14.821Z,208.40
2023-06-21T04:14:14.808Z,208.33
2023-06-21T04:15:14.775Z,209.09
2023-06-21T04:16:14.794Z,208.47
2023-06-21T04:17:14.825Z,208.41
2023-06-21T04:18:14.824Z,210.11
2023-06-21T04:19:14.859Z,211.28
2023-06-21T04:20:14.869Z,212.26
2023-06-21T04:21:14.898Z,211.35
2023-06-21T04:22:14.899Z,214.61
2023-06-21T04:23:14.884Z,213.64
2023-06-21T04:24:14.930Z,212.96
2023-06-21T04:25:14.913Z,213.46
2023-06-21T04:26:14.914Z,213.62
2023-06-21T04:27:14.963Z,215.61
2023-06-21T04:28:14.978Z,215.27
2023-06-21T04:29:14.953Z,215.35
2023-06-21T04:30:14.985Z,215.28
2023-06-21T04:31:15.042Z,216.48
2023-06-21T04:32:14.985Z,216.58
2023-06-21T04:33:14.986Z,217.43
2023-06-21T04:34:15.021Z,218.38
2023-06-21T04:35:15.014Z,216.05
2023-06-21T04:36:15.035Z,216.21
2023-06-21T04:37:15.028Z,215.41
2023-06-21T04:38:15.033Z,215.68
2023-06-21T04:39:15.056Z,215.33
2023-06-21T04:40:17.222Z,215.23
2023-06-21T04:41:15.048Z,216.55
2023-06-21T04:42:15.075Z,216.40
2023-06-21T04:43:15.037Z,214.27
2023-06-21T04:44:15.035Z,212.57
2023-06-21T04:45:15.016Z,213.01
2023-06-21T04:46:15.161Z,214.87
2023-06-21T04:47:15.661Z,214.44
2023-06-21T04:48:15.024Z,216.43
2023-06-21T04:49:15.013Z,218.87
2023-06-21T04:50:20.315Z,218.43
2023-06-21T04:51:16.005Z,218.71
2023-06-21T04:52:14.988Z,219.22
2023-06-21T04:53:14.979Z,220.33
2023-06-21T04:54:15.018Z,221.92
2023-06-21T04:55:14.979Z,225.04
2023-06-21T04:56:14.974Z,224.38
2023-06-21T04:57:14.969Z,225.54
2023-06-21T04:58:14.936Z,225.60
2023-06-21T04:59:14.946Z,226.25
2023-06-21T05:00:14.960Z,226.54
2023-06-21T05:01:14.972Z,226.39
2023-06-21T05:02:14.958Z,227.58
2023-06-21T05:03:15.062Z,223.39
2023-06-21T05:04:14.912Z,224.90
2023-06-21T05:05:14.915Z,226.13
2023-06-21T05:06:14.905Z,224.42
2023-06-21T05:07:14.889Z,225.17
2023-06-21T05:08:14.904Z,225.13
2023-06-21T05:09:14.882Z,228.78
2023-06-21T05:10:14.882Z,234.25
2023-06-21T05:11:14.863Z,238.83
2023-06-21T05:12:14.876Z,242.57
2023-06-21T05:13:14.881Z,247.53
2023-06-21T05:14:14.859Z,249.80
2023-06-21T05:15:14.883Z,249.91
2023-06-21T05:16:14.844Z,250.00
2023-06-21T05:17:14.867Z,249.94
2023-06-21T05:18:14.839Z,248.78
2023-06-21T05:19:14.811Z,248.75
2023-06-21T05:20:15.886Z,248.89
2023-06-21T05:21:14.807Z,249.46
2023-06-21T05:22:14.812Z,249.69
2023-06-21T05:23:14.811Z,248.68
2023-06-21T05:24:14.806Z,249.41
2023-06-21T05:25:14.893Z,248.70
2023-06-21T05:26:14.788Z,246.97
2023-06-21T05:27:14.791Z,248.89
2023-06-21T05:28:14.811Z,250.00
2023-06-21T05:29:14.778Z,249.52
2023-06-21T05:30:14.766Z,249.88
2023-06-21T05:31:14.810Z,247.22
2023-06-21T05:32:14.832Z,249.59
2023-06-21T05:33:14.817Z,250.00
2023-06-21T05:34:14.823Z,248.90
2023-06-21T05:35:14.912Z,247.89
2023-06-21T05:36:14.911Z,248.00
2023-06-21T05:37:14.995Z,247.71
2023-06-21T05:38:15.140Z,248.14
2023-06-21T05:39:15.069Z,244.65
2023-06-21T05:40:15.161Z,244.54
2023-06-21T05:41:15.228Z,244.33
2023-06-21T05:42:15.253Z,243.97
2023-06-21T05:43:15.328Z,242.17
2023-06-21T05:44:15.390Z,243.45
2023-06-21T05:45:15.417Z,243.15
2023-06-21T05:46:15.504Z,245.37
2023-06-21T05:47:15.869Z,245.51
2023-06-21T05:48:15.930Z,242.89
2023-06-21T05:49:15.671Z,244.50
2023-06-21T05:50:15.763Z,245.11
2023-06-21T05:51:15.835Z,244.82
2023-06-21T05:52:15.844Z,244.91
2023-06-21T05:53:15.929Z,245.29
2023-06-21T05:54:15.995Z,244.36
2023-06-21T05:55:16.045Z,241.72
2023-06-21T05:56:16.112Z,242.49
2023-06-21T05:57:16.175Z,243.78
2023-06-21T05:58:16.207Z,243.69
2023-06-21T05:59:18.591Z,244.48
2023-06-21T06:00:16.248Z,244.54
2023-06-21T06:01:24.840Z,244.49
2023-06-21T06:02:17.284Z,244.68
2023-06-21T06:03:16.410Z,244.64
2023-06-21T06:04:16.297Z,245.01
2023-06-21T06:05:16.289Z,243.42
2023-06-21T06:06:16.204Z,243.25
2023-06-21T06:07:16.213Z,239.92
2023-06-21T06:08:16.219Z,242.13
2023-06-21T06:09:16.172Z,240.94
2023-06-21T06:10:16.191Z,239.32
2023-06-21T06:11:16.164Z,240.46
2023-06-21T06:12:16.173Z,238.49
2023-06-21T06:13:16.266Z,239.15
2023-06-21T06:14:16.265Z,238.11
2023-06-21T06:15:16.327Z,241.11
2023-06-21T06:16:16.367Z,239.55
2023-06-21T06:17:16.371Z,237.43
2023-06-21T06:18:16.424Z,237.23
2023-06-21T06:19:16.450Z,237.88
2023-06-21T06:20:16.507Z,238.29
2023-06-21T06:21:16.522Z,234.59
2023-06-21T06:22:16.617Z,235.73
2023-06-21T06:23:16.587Z,235.35
2023-06-21T06:24:16.632Z,235.49
2023-06-21T06:25:16.674Z,236.42
2023-06-21T06:26:16.692Z,236.89
2023-06-21T06:27:16.711Z,234.61
2023-06-21T06:28:16.769Z,231.18
2023-06-21T06:29:16.797Z,231.80
2023-06-21T06:30:16.819Z,229.85
2023-06-21T06:31:16.831Z,228.76
2023-06-21T06:32:16.859Z,228.99
2023-06-21T06:33:16.963Z,231.13
2023-06-21T06:34:16.898Z,228.35
2023-06-21T06:35:16.958Z,228.01
2023-06-21T06:36:16.927Z,228.29
2023-06-21T06:37:20.595Z,227.63
2023-06-21T06:38:16.987Z,227.75
2023-06-21T06:39:16.979Z,226.68
2023-06-21T06:40:16.996Z,223.13
2023-06-21T06:41:16.905Z,228.24
2023-06-21T06:42:16.974Z,229.05
2023-06-21T06:43:16.934Z,228.04
2023-06-21T06:44:16.908Z,227.33
2023-06-21T06:45:16.923Z,225.58
2023-06-21T06:46:16.886Z,224.96
2023-06-21T06:47:16.858Z,225.68
2023-06-21T06:48:16.885Z,223.91
2023-06-21T06:49:16.875Z,226.49
2023-06-21T06:50:17.042Z,223.76
2023-06-21T06:51:16.845Z,227.16
2023-06-21T06:52:16.822Z,226.81
2023-06-21T06:53:16.866Z,224.08
2023-06-21T06:54:16.849Z,221.72
2023-06-21T06:55:16.806Z,222.51
2023-06-21T06:56:16.813Z,220.54
2023-06-21T06:57:26.500Z,223.43
2023-06-21T06:58:18.012Z,223.48
2023-06-21T06:59:16.821Z,220.20
2023-06-21T07:00:16.799Z,222.31
2023-06-21T07:01:16.800Z,223.65
2023-06-21T07:02:16.787Z,222.40
2023-06-21T07:03:16.913Z,220.29
2023-06-21T07:04:16.947Z,217.71
2023-06-21T07:05:16.876Z,220.05
2023-06-21T07:06:16.826Z,214.62
2023-06-21T07:07:16.763Z,214.05
2023-06-21T07:08:16.976Z,214.73
2023-06-21T07:09:16.730Z,213.05
2023-06-21T07:10:19.479Z,213.69
2023-06-21T07:11:16.721Z,216.59
2023-06-21T07:12:16.730Z,210.37
2023-06-21T07:13:16.980Z,210.82
2023-06-21T07:14:16.687Z,209.13
2023-06-21T07:15:16.684Z,208.68
2023-06-21T07:16:16.695Z,209.98
2023-06-21T07:17:16.684Z,207.14
2023-06-21T07:18:16.694Z,207.10
2023-06-21T07:19:16.694Z,204.25
2023-06-21T07:20:16.673Z,203.51
2023-06-21T07:21:18.685Z,203.78
2023-06-21T07:22:16.617Z,203.91
2023-06-21T07:23:16.998Z,203.30
2023-06-21T07:24:16.644Z,201.78
2023-06-21T07:25:16.734Z,200.47
2023-06-21T07:26:16.616Z,201.14
2023-06-21T07:27:16.719Z,199.49
2023-06-21T07:28:17.061Z,196.67
2023-06-21T07:29:16.606Z,195.81
2023-06-21T07:30:16.631Z,193.88
2023-06-21T07:31:16.697Z,192.97
2023-06-21T07:32:16.593Z,182.91
2023-06-21T07:33:16.668Z,182.04
2023-06-21T07:34:16.606Z,180.11
2023-06-21T07:35:16.779Z,180.04
2023-06-21T07:36:16.587Z,184.89
2023-06-21T07:37:16.824Z,188.71
2023-06-21T07:38:16.635Z,192.78
2023-06-21T07:39:16.559Z,194.58
2023-06-21T07:40:17.494Z,196.44
2023-06-21T07:41:16.531Z,196.27
2023-06-21T07:42:16.628Z,196.26
2023-06-21T07:43:17.056Z,197.61
2023-06-21T07:44:16.584Z,201.48
2023-06-21T07:45:16.523Z,204.14
2023-06-21T07:46:16.614Z,204.36
2023-06-21T07:47:16.620Z,204.24
2023-06-21T07:48:20.301Z,206.36
2023-06-21T07:49:16.468Z,206.49
2023-06-21T07:50:22.462Z,206.90
2023-06-21T07:51:17.480Z,206.56
2023-06-21T07:52:16.445Z,206.91
2023-06-21T07:53:17.044Z,207.21
2023-06-21T07:54:16.473Z,208.13
2023-06-21T07:55:16.498Z,210.43
2023-06-21T07:56:16.503Z,211.40
2023-06-21T07:57:16.420Z,208.43
2023-06-21T07:58:16.443Z,208.23
2023-06-21T07:59:16.454Z,208.40
2023-06-21T08:00:16.467Z,210.15
2023-06-21T08:01:16.514Z,208.58
2023-06-21T08:02:16.632Z,207.52
2023-06-21T08:03:17.036Z,205.30
2023-06-21T08:04:16.632Z,206.19
2023-06-21T08:05:16.833Z,206.60
2023-06-21T08:06:16.728Z,208.73
2023-06-21T08:07:16.821Z,209.11
2023-06-21T08:08:16.997Z,208.13
2023-06-21T08:09:16.941Z,204.84
2023-06-21T08:10:17.007Z,205.12
2023-06-21T08:11:17.132Z,207.31
2023-06-21T08:12:17.078Z,210.63
2023-06-21T08:13:17.141Z,213.16
2023-06-21T08:14:17.272Z,206.76
2023-06-21T08:15:17.442Z,207.68
2023-06-21T08:16:17.347Z,204.64
2023-06-21T08:17:17.367Z,206.87
2023-06-21T08:18:19.027Z,203.33
2023-06-21T08:19:17.579Z,197.79
2023-06-21T08:20:18.571Z,197.06
2023-06-21T08:21:17.635Z,190.95
2023-06-21T08:22:17.614Z,178.40
2023-06-21T08:23:18.050Z,179.90
2023-06-21T08:24:17.710Z,181.86
2023-06-21T08:25:17.738Z,181.08
2023-06-21T08:26:17.814Z,178.27
2023-06-21T08:27:17.846Z,173.35
2023-06-21T08:28:18.028Z,167.00
2023-06-21T08:29:17.988Z,158.79
2023-06-21T08:30:17.995Z,155.61
2023-06-21T08:31:18.208Z,151.02
2023-06-21T08:32:18.072Z,146.85
2023-06-21T08:33:18.142Z,145.98
2023-06-21T08:34:18.139Z,141.28
2023-06-21T08:35:18.153Z,137.45
2023-06-21T08:36:18.168Z,137.93
2023-06-21T08:37:18.190Z,136.01
2023-06-21T08:38:26.568Z,133.65
2023-06-21T08:39:19.204Z,133.81
2023-06-21T08:40:18.216Z,134.60
2023-06-21T08:41:18.240Z,138.70
2023-06-21T08:42:18.318Z,146.89
2023-06-21T08:43:18.409Z,158.42
2023-06-21T08:44:18.362Z,159.44
2023-06-21T08:45:18.369Z,159.16
2023-06-21T08:46:18.429Z,157.87
2023-06-21T08:47:18.374Z,152.88
2023-06-21T08:48:18.427Z,158.25
2023-06-21T08:49:18.403Z,163.83
2023-06-21T08:50:18.478Z,165.61
2023-06-21T08:51:18.564Z,168.06
2023-06-21T08:52:18.561Z,172.75
2023-06-21T08:53:18.570Z,171.32
2023-06-21T08:54:18.664Z,172.26
2023-06-21T08:55:18.675Z,173.14
2023-06-21T08:56:18.724Z,174.55
2023-06-21T08:57:18.807Z,175.99
2023-06-21T08:58:18.919Z,172.80
2023-06-21T08:59:18.891Z,170.01
2023-06-21T09:00:18.968Z,172.22
2023-06-21T09:01:19.135Z,170.56
2023-06-21T09:02:19.149Z,170.06
2023-06-21T09:03:19.239Z,171.87
2023-06-21T09:04:19.359Z,170.90
2023-06-21T09:05:19.165Z,170.12
2023-06-21T09:06:19.273Z,173.66
2023-06-21T09:07:19.295Z,175.10
2023-06-21T09:08:19.338Z,166.01
2023-06-21T09:09:19.397Z,167.39
2023-06-21T09:10:19.570Z,169.89
2023-06-21T09:11:19.514Z,167.90
2023-06-21T09:12:19.614Z,174.19
2023-06-21T09:13:20.036Z,165.57
2023-06-21T09:14:19.743Z,169.88
2023-06-21T09:15:20.523Z,167.56
2023-06-21T09:16:19.850Z,171.14
2023-06-21T09:17:19.897Z,173.63
2023-06-21T09:18:20.017Z,176.24
2023-06-21T09:19:20.033Z,183.92
2023-06-21T09:20:20.136Z,184.77
2023-06-21T09:21:20.146Z,181.69
2023-06-21T09:22:20.192Z,186.38
2023-06-21T09:23:20.260Z,182.49
2023-06-21T09:24:20.294Z,182.75
2023-06-21T09:25:20.396Z,177.42
2023-06-21T09:26:20.443Z,168.91
2023-06-21T09:27:20.480Z,167.02
2023-06-21T09:28:20.561Z,152.05
2023-06-21T09:29:20.650Z,148.53
2023-06-21T09:30:36.750Z,142.50
2023-06-21T09:31:21.673Z,139.37
2023-06-21T09:32:20.719Z,138.28
2023-06-21T09:33:20.711Z,132.13
2023-06-21T09:34:20.677Z,130.03
2023-06-21T09:35:20.650Z,128.26
2023-06-21T09:36:20.693Z,120.20
2023-06-21T09:37:20.657Z,121.21
2023-06-21T09:38:21.061Z,117.60
2023-06-21T09:39:20.659Z,112.30
2023-06-21T09:40:20.672Z,108.25
2023-06-21T09:41:21.528Z,106.59
2023-06-21T09:42:20.712Z,104.86
2023-06-21T09:43:21.052Z,98.08
2023-06-21T09:44:21.535Z,97.29
2023-06-21T09:45:20.818Z,90.37
2023-06-21T09:46:20.774Z,88.54
2023-06-21T09:47:20.850Z,88.10
2023-06-21T09:48:21.229Z,92.32
2023-06-21T09:49:20.887Z,85.49
2023-06-21T09:50:21.053Z,90.52
2023-06-21T09:51:20.870Z,87.12
2023-06-21T09:52:21.524Z,81.81
2023-06-21T09:53:21.034Z,80.68
2023-06-21T09:54:20.999Z,78.89
2023-06-21T09:55:20.990Z,77.98
2023-06-21T09:56:21.049Z,78.82
2023-06-21T09:57:21.052Z,79.54
2023-06-21T09:58:21.573Z,82.48
2023-06-21T09:59:21.128Z,87.63
2023-06-21T10:00:21.156Z,89.84
2023-06-21T10:01:21.281Z,91.07
2023-06-21T10:02:21.200Z,94.09
2023-06-21T10:03:21.246Z,95.32
2023-06-21T10:04:21.174Z,97.36
2023-06-21T10:05:21.346Z,97.17
2023-06-21T10:06:21.213Z,90.69
2023-06-21T10:07:21.220Z,92.17
2023-06-21T10:08:21.249Z,94.74
2023-06-21T10:09:21.937Z,95.73
2023-06-21T10:10:21.210Z,94.03
2023-06-21T10:11:21.214Z,91.74
2023-06-21T10:12:21.228Z,82.91
2023-06-21T10:13:21.260Z,84.78
2023-06-21T10:14:21.246Z,84.54
2023-06-21T10:15:21.241Z,82.09
2023-06-21T10:16:21.282Z,77.40
2023-06-21T10:17:21.276Z,76.37
2023-06-21T10:18:21.365Z,79.34
2023-06-21T10:19:21.273Z,84.21
2023-06-21T10:20:21.335Z,81.80
2023-06-21T10:21:21.325Z,78.25
2023-06-21T10:22:21.309Z,82.25
2023-06-21T10:23:21.288Z,79.62
2023-06-21T10:24:21.616Z,85.99
2023-06-21T10:25:21.320Z,79.14
2023-06-21T10:26:21.330Z,77.01
2023-06-21T10:27:21.282Z,79.64
2023-06-21T10:28:21.578Z,78.78
2023-06-21T10:29:21.275Z,80.98
2023-06-21T10:30:21.344Z,77.89
2023-06-21T10:31:22.100Z,76.85
2023-06-21T10:32:21.458Z,75.46
2023-06-21T10:33:21.489Z,72.01
2023-06-21T10:34:21.330Z,73.69
2023-06-21T10:35:21.281Z,70.31
2023-06-21T10:36:21.288Z,68.23
2023-06-21T10:37:21.267Z,71.61
2023-06-21T10:38:21.288Z,71.86
2023-06-21T10:39:21.271Z,66.28
2023-06-21T10:40:21.348Z,64.82
2023-06-21T10:41:21.260Z,64.27
2023-06-21T10:42:21.285Z,61.51
2023-06-21T10:43:21.251Z,60.48
2023-06-21T10:44:24.404Z,56.26
2023-06-21T10:45:21.239Z,55.04
2023-06-21T10:46:21.293Z,57.39
2023-06-21T10:47:21.227Z,59.68
2023-06-21T10:48:21.269Z,60.24
2023-06-21T10:49:21.606Z,57.78
2023-06-21T10:50:21.191Z,61.84
2023-06-21T10:51:21.240Z,60.65
2023-06-21T10:52:21.193Z,56.97
2023-06-21T10:53:22.744Z,59.78
2023-06-21T10:54:21.213Z,58.39
2023-06-21T10:55:21.306Z,58.77
2023-06-21T10:56:21.143Z,51.96
2023-06-21T10:57:21.177Z,46.39
2023-06-21T10:58:21.155Z,45.92
2023-06-21T10:59:21.142Z,51.69
2023-06-21T11:00:21.209Z,53.19
2023-06-21T11:01:21.223Z,51.81
2023-06-21T11:02:21.131Z,47.33
2023-06-21T11:03:21.170Z,42.34
2023-06-21T11:04:21.161Z,45.02
2023-06-21T11:05:21.148Z,28.42
2023-06-21T11:06:21.104Z,29.91
2023-06-21T11:07:21.081Z,36.68
2023-06-21T11:08:21.095Z,40.72
2023-06-21T11:09:21.593Z,47.38
2023-06-21T11:10:21.103Z,43.05
2023-06-21T11:11:21.070Z,41.08
2023-06-21T11:12:21.064Z,42.67
2023-06-21T11:13:21.052Z,45.15
2023-06-21T11:14:21.079Z,43.44
2023-06-21T11:15:21.086Z,46.49
2023-06-21T11:16:21.044Z,47.33
2023-06-21T11:17:21.020Z,46.21
2023-06-21T11:18:21.086Z,42.50
2023-06-21T11:19:21.070Z,39.51
2023-06-21T11:20:21.017Z,45.71
2023-06-21T11:21:20.995Z,44.32
2023-06-21T11:22:21.033Z,47.04
2023-06-21T11:23:21.048Z,35.95
2023-06-21T11:24:21.104Z,39.83
2023-06-21T11:25:21.151Z,40.90
2023-06-21T11:26:21.194Z,43.66
2023-06-21T11:27:21.204Z,39.52
2023-06-21T11:28:21.212Z,40.45
2023-06-21T11:29:21.229Z,39.58
2023-06-21T11:30:21.229Z,39.94
2023-06-21T11:31:21.241Z,39.34
2023-06-21T11:32:21.278Z,37.42
2023-06-21T11:33:21.244Z,36.20
2023-06-21T11:34:21.253Z,34.93
2023-06-21T11:35:21.216Z,34.16
2023-06-21T11:36:21.256Z,37.89
2023-06-21T11:37:21.255Z,31.29
2023-06-21T11:38:21.277Z,26.30
2023-06-21T11:39:21.291Z,26.99
2023-06-21T11:40:21.304Z,25.20
2023-06-21T11:41:21.380Z,29.46
2023-06-21T11:42:21.380Z,32.62
2023-06-21T11:43:21.416Z,34.13
2023-06-21T11:44:21.499Z,26.95
2023-06-21T11:45:21.474Z,27.02
2023-06-21T11:46:21.561Z,27.00
2023-06-21T11:47:21.629Z,30.80
2023-06-21T11:48:21.523Z,28.82
2023-06-21T11:49:21.539Z,28.49
2023-06-21T11:50:21.554Z,30.00
2023-06-21T11:51:21.623Z,25.22
2023-06-21T11:52:21.632Z,29.02
2023-06-21T11:53:21.634Z,29.63
2023-06-21T11:54:21.641Z,27.68
2023-06-21T11:55:21.639Z,31.78
2023-06-21T11:56:21.654Z,25.00
2023-06-21T11:57:21.701Z,29.12
2023-06-21T11:58:21.676Z,24.82
2023-06-21T11:59:22.098Z,26.89
2023-06-21T12:00:21.733Z,26.24
2023-06-21T12:01:21.747Z,26.96
2023-06-21T12:02:21.959Z,25.00
2023-06-21T12:03:21.887Z,25.39
2023-06-21T12:04:21.812Z,30.44
2023-06-21T12:05:22.003Z,31.25
2023-06-21T12:06:21.831Z,27.72
2023-06-21T12:07:21.829Z,27.81
2023-06-21T12:08:21.832Z,25.58
2023-06-21T12:09:21.835Z,27.77
2023-06-21T12:10:21.852Z,26.92
2023-06-21T12:11:21.830Z,28.32
2023-06-21T12:12:21.898Z,27.26
2023-06-21T12:13:21.874Z,30.28
2023-06-21T12:14:22.125Z,28.77
2023-06-21T12:15:22.612Z,33.67
2023-06-21T12:16:21.854Z,37.81
2023-06-21T12:17:22.699Z,37.83
2023-06-21T12:18:21.899Z,35.82
2023-06-21T12:19:22.119Z,34.78
2023-06-21T12:20:21.816Z,38.08
2023-06-21T12:21:21.852Z,30.94
2023-06-21T12:22:21.869Z,31.56
2023-06-21T12:23:21.851Z,35.50
2023-06-21T12:24:22.164Z,36.29
2023-06-21T12:25:21.903Z,41.45
2023-06-21T12:26:21.849Z,44.04
2023-06-21T12:27:21.846Z,41.90
2023-06-21T12:28:21.881Z,38.45
2023-06-21T12:29:21.923Z,36.19
2023-06-21T12:30:21.919Z,35.52
2023-06-21T12:31:21.966Z,33.04
2023-06-21T12:32:21.974Z,33.94
2023-06-21T12:33:21.983Z,30.92